createdAt,value
2018-01-11T00:02:22.625Z,10.70
2018-01-11T00:04:51.462Z,10.93
2018-01-11T00:07:22.018Z,9.60
2018-01-11T00:09:51.502Z,11.43
2018-01-11T00:12:23.039Z,10.90
2018-01-11T00:14:52.791Z,10.40
2018-01-11T00:17:22.792Z,10.33
2018-01-11T00:19:52.866Z,9.87
2018-01-11T00:22:22.130Z,11.27
2018-01-11T00:24:51.683Z,11.00
2018-01-11T00:27:20.006Z,10.90
2018-01-11T00:29:48.327Z,11.73
2018-01-11T00:32:17.495Z,10.13
2018-01-11T00:34:48.152Z,11.70
2018-01-11T00:37:18.103Z,13.40
2018-01-11T00:39:47.050Z,12.63
2018-01-11T00:42:18.793Z,13.43
2018-01-11T00:44:50.659Z,14.50
2018-01-11T00:47:20.963Z,13.50
2018-01-11T00:49:51.909Z,14.23
2018-01-11T00:52:21.386Z,14.87
2018-01-11T00:54:51.781Z,15.20
2018-01-11T00:57:20.935Z,12.87
2018-01-11T00:59:50.235Z,12.43
2018-01-11T01:02:20.335Z,13.37
2018-01-11T01:04:52.149Z,14.40
2018-01-11T01:07:21.782Z,14.33
2018-01-11T01:09:51.124Z,13.07
2018-01-11T01:12:20.599Z,13.07
2018-01-11T01:14:50.776Z,14.30
2018-01-11T01:17:21.593Z,12.90
2018-01-11T01:19:51.250Z,14.17
2018-01-11T01:22:21.971Z,11.63
2018-01-11T01:24:50.557Z,12.57
2018-01-11T01:27:20.128Z,12.23
2018-01-11T01:29:48.871Z,11.97
2018-01-11T01:32:18.842Z,15.10
2018-01-11T01:34:49.922Z,12.97
2018-01-11T01:37:19.947Z,14.17
2018-01-11T01:39:52.115Z,13.60
2018-01-11T01:42:22.297Z,14.10
2018-01-11T01:44:52.270Z,12.00
2018-01-11T01:47:20.950Z,13.10
2018-01-11T01:49:49.593Z,13.93
2018-01-11T01:52:18.273Z,13.00
2018-01-11T01:54:49.258Z,15.13
2018-01-11T02:00:20.177Z,14.13
2018-01-11T02:02:49.240Z,14.60
2018-01-11T02:05:19.751Z,15.40
2018-01-11T02:07:50.638Z,14.40
2018-01-11T02:10:20.965Z,13.27
2018-01-11T02:12:50.797Z,14.50
2018-01-11T02:15:20.540Z,13.40
2018-01-11T02:17:50.361Z,12.67
2018-01-11T02:20:20.387Z,13.97
2018-01-11T02:22:50.637Z,14.17
2018-01-11T02:25:22.813Z,13.70
2018-01-11T02:27:51.881Z,16.27
2018-01-11T02:30:21.974Z,14.07
2018-01-11T02:32:50.776Z,14.20
2018-01-11T02:35:21.770Z,13.40
2018-01-11T02:37:50.694Z,13.93
2018-01-11T02:40:19.466Z,13.30
2018-01-11T02:42:49.226Z,13.97
2018-01-11T02:45:21.378Z,15.13
2018-01-11T02:47:52.734Z,14.17
2018-01-11T02:50:22.169Z,14.23
2018-01-11T02:52:50.411Z,13.80
2018-01-11T02:55:20.709Z,13.00
2018-01-11T02:57:50.687Z,13.13
2018-01-11T03:00:33.588Z,11.97
2018-01-11T03:03:03.237Z,13.57
2018-01-11T03:05:32.218Z,13.67
2018-01-11T03:08:01.430Z,13.90
2018-01-11T03:10:31.635Z,13.73
2018-01-11T03:13:00.471Z,14.30
2018-01-11T03:15:30.179Z,14.40
2018-01-11T03:18:01.021Z,12.60
2018-01-11T03:20:30.250Z,12.40
2018-01-11T03:22:59.796Z,13.50
2018-01-11T03:25:28.206Z,12.17
2018-01-11T03:27:56.973Z,12.97
2018-01-11T03:30:25.997Z,12.00
2018-01-11T03:32:57.581Z,13.70
2018-01-11T03:35:26.414Z,12.47
2018-01-11T03:37:55.567Z,14.83
2018-01-11T03:40:24.605Z,13.90
2018-01-11T03:42:52.864Z,13.50
2018-01-11T03:45:26.649Z,14.20
2018-01-11T03:47:54.778Z,14.23
2018-01-11T03:50:23.062Z,14.13
2018-01-11T03:52:51.354Z,14.87
2018-01-11T03:55:19.585Z,15.47
2018-01-11T03:57:47.832Z,14.43
2018-01-11T04:00:16.125Z,15.13
2018-01-11T04:02:44.369Z,14.63
2018-01-11T04:05:12.609Z,16.17
2018-01-11T04:07:42.388Z,16.47
2018-01-11T04:10:11.030Z,16.07
2018-01-11T04:12:40.041Z,15.40
2018-01-11T04:15:09.465Z,14.40
2018-01-11T04:17:38.097Z,15.03
2018-01-11T04:20:06.743Z,13.03
2018-01-11T04:22:35.057Z,14.80
2018-01-11T04:25:04.681Z,14.60
2018-01-11T04:27:32.805Z,12.70
2018-01-11T04:30:01.078Z,15.17
2018-01-11T04:32:29.312Z,16.60
2018-01-11T04:34:57.948Z,16.67
2018-01-11T04:37:27.726Z,14.50
2018-01-11T04:39:57.350Z,14.60
2018-01-11T04:42:25.593Z,14.43
2018-01-11T04:44:53.877Z,16.00
2018-01-11T04:47:22.123Z,15.17
2018-01-11T04:49:51.644Z,14.60
2018-01-11T04:52:21.065Z,17.17
2018-01-11T04:54:49.693Z,14.87
2018-01-11T04:57:17.947Z,15.30
2018-01-11T04:59:46.229Z,14.73
2018-01-11T05:02:14.473Z,14.40
2018-01-11T05:04:42.717Z,16.40
2018-01-11T05:07:11.013Z,16.47
2018-01-11T05:09:39.259Z,15.00
2018-01-11T05:12:07.510Z,15.17
2018-01-11T05:14:37.141Z,15.77
2018-01-11T05:17:06.764Z,14.60
2018-01-11T05:19:35.406Z,16.97
2018-01-11T05:22:03.682Z,15.60
2018-01-11T05:24:31.933Z,14.07
2018-01-11T05:27:00.191Z,16.50
2018-01-11T05:29:28.461Z,16.03
2018-01-11T05:31:57.469Z,15.50
2018-01-11T05:34:26.117Z,14.97
2018-01-11T05:36:54.392Z,15.93
2018-01-11T05:39:23.777Z,15.33
2018-01-11T05:41:52.017Z,16.50
2018-01-11T05:44:20.312Z,18.03
2018-01-11T05:46:48.557Z,18.87
2018-01-11T05:49:16.824Z,16.93
2018-01-11T05:51:45.101Z,16.30
2018-01-11T05:54:13.378Z,14.93
2018-01-11T05:56:41.629Z,17.77
2018-01-11T05:59:11.048Z,17.43
2018-01-11T06:01:39.289Z,17.40
2018-01-11T06:04:07.535Z,19.03
2018-01-11T06:06:35.806Z,16.03
2018-01-11T06:09:04.044Z,17.60
2018-01-11T06:11:32.282Z,18.70
2018-01-11T06:14:01.324Z,18.00
2018-01-11T06:16:29.575Z,17.47
2018-01-11T06:18:57.809Z,16.67
2018-01-11T06:21:26.125Z,17.20
2018-01-11T06:23:55.873Z,17.00
2018-01-11T06:26:24.122Z,17.13
2018-01-11T06:28:52.398Z,15.43
2018-01-11T06:31:20.655Z,17.20
2018-01-11T06:33:48.925Z,16.00
2018-01-11T06:36:17.202Z,15.37
2018-01-11T06:38:45.450Z,16.87
2018-01-11T06:41:14.497Z,15.63
2018-01-11T06:43:43.938Z,14.60
2018-01-11T06:46:12.968Z,14.80
2018-01-11T06:48:41.620Z,16.50
2018-01-11T06:51:10.675Z,19.30
2018-01-11T06:53:39.301Z,16.33
2018-01-11T06:56:07.553Z,16.30
2018-01-11T06:58:37.365Z,16.17
2018-01-11T07:01:06.964Z,17.70
2018-01-11T07:03:35.080Z,17.90
2018-01-11T07:06:03.778Z,18.03
2018-01-11T07:08:32.020Z,15.13
2018-01-11T07:11:00.269Z,17.90
2018-01-11T07:13:29.894Z,17.40
2018-01-11T07:15:58.142Z,18.30
2018-01-11T07:18:26.398Z,19.67
2018-01-11T07:20:54.664Z,19.80
2018-01-11T07:23:23.685Z,17.30
2018-01-11T07:25:52.693Z,19.90
2018-01-11T07:28:21.366Z,18.13
2018-01-11T07:30:49.628Z,17.10
2018-01-11T07:33:19.240Z,16.37
2018-01-11T07:35:48.937Z,17.90
2018-01-11T07:38:17.217Z,17.50
2018-01-11T07:40:45.457Z,16.40
2018-01-11T07:43:13.773Z,16.80
2018-01-11T07:45:43.525Z,21.60
2018-01-11T07:48:13.177Z,28.33
2018-01-11T07:50:41.737Z,38.37
2018-01-11T07:53:09.981Z,53.83
2018-01-11T07:55:38.252Z,21.70
2018-01-11T07:58:06.926Z,20.77
2018-01-11T08:00:36.296Z,25.80
2018-01-11T08:03:04.581Z,21.77
2018-01-11T08:05:32.845Z,23.60
2018-01-11T08:08:01.101Z,17.40
2018-01-11T08:10:29.373Z,20.13
2018-01-11T08:12:57.611Z,20.30
2018-01-11T08:15:25.856Z,21.70
2018-01-11T08:17:54.900Z,18.80
2018-01-11T08:20:23.152Z,19.60
2018-01-11T08:22:52.897Z,18.67
2018-01-11T08:25:21.174Z,18.43
2018-01-11T08:27:50.929Z,20.77
2018-01-11T08:30:19.562Z,19.93
2018-01-11T08:32:47.873Z,20.67
2018-01-11T08:35:16.126Z,19.50
2018-01-11T08:37:45.892Z,18.57
2018-01-11T08:40:14.843Z,19.23
2018-01-11T08:42:44.251Z,19.90
2018-01-11T08:45:12.489Z,20.03
2018-01-11T08:47:40.786Z,18.93
2018-01-11T08:50:09.027Z,19.10
2018-01-11T08:52:37.254Z,17.60
2018-01-11T08:55:06.672Z,18.27
2018-01-11T08:57:35.672Z,18.87
2018-01-11T09:00:05.281Z,19.27
2018-01-11T09:02:34.216Z,18.97
2018-01-11T09:05:02.870Z,19.70
2018-01-11T09:07:31.121Z,18.60
2018-01-11T09:09:59.394Z,18.57
2018-01-11T09:12:27.632Z,18.43
2018-01-11T09:14:57.381Z,16.80
2018-01-11T09:17:25.670Z,17.50
2018-01-11T09:19:54.674Z,17.90
2018-01-11T09:22:22.913Z,17.17
2018-01-11T09:24:51.977Z,19.57
2018-01-11T09:27:20.230Z,19.10
2018-01-11T09:29:48.468Z,17.60
2018-01-11T09:32:18.104Z,18.73
2018-01-11T09:34:47.001Z,18.93
2018-01-11T09:37:15.277Z,17.73
2018-01-11T09:39:44.931Z,20.97
2018-01-11T09:42:13.081Z,19.63
2018-01-11T09:44:42.130Z,19.57
2018-01-11T09:47:10.801Z,19.83
2018-01-11T09:49:39.049Z,20.33
2018-01-11T09:52:07.298Z,22.63
2018-01-11T09:54:35.596Z,21.60
2018-01-11T09:57:03.833Z,20.00
2018-01-11T09:59:32.102Z,19.60
2018-01-11T10:02:01.558Z,20.33
2018-01-11T10:04:31.183Z,23.13
2018-01-11T10:07:00.875Z,22.87
2018-01-11T10:09:30.297Z,22.57
2018-01-11T10:11:58.541Z,21.90
2018-01-11T10:14:26.837Z,20.73
2018-01-11T10:16:55.076Z,21.23
2018-01-11T10:19:23.321Z,21.47
2018-01-11T10:21:51.597Z,21.70
2018-01-11T10:24:20.604Z,20.40
2018-01-11T10:26:48.857Z,21.53
2018-01-11T10:29:17.158Z,20.40
2018-01-11T10:31:45.447Z,23.13
2018-01-11T10:34:13.715Z,22.90
2018-01-11T10:36:42.023Z,21.73
2018-01-11T10:39:11.416Z,22.10
2018-01-11T10:41:41.169Z,21.97
2018-01-11T10:44:09.450Z,23.73
2018-01-11T10:46:38.464Z,23.83
2018-01-11T10:49:07.522Z,22.90
2018-01-11T10:51:35.750Z,22.87
2018-01-11T10:54:03.992Z,21.70
2018-01-11T10:56:33.013Z,21.20
2018-01-11T10:59:03.045Z,23.43
2018-01-11T11:01:38.316Z,24.50
2018-01-11T11:04:07.040Z,22.20
2018-01-11T11:06:35.672Z,22.33
2018-01-11T11:09:04.689Z,21.80
2018-01-11T11:11:33.026Z,21.63
2018-01-11T11:14:05.980Z,22.80
2018-01-11T11:16:34.893Z,23.13
2018-01-11T11:19:03.138Z,27.10
2018-01-11T11:21:32.156Z,28.20
2018-01-11T11:24:01.229Z,25.67
2018-01-11T11:26:29.491Z,26.50
2018-01-11T11:28:57.725Z,28.40
2018-01-11T11:31:25.996Z,26.00
2018-01-11T11:33:54.236Z,23.83
2018-01-11T11:36:22.480Z,25.47
2018-01-11T11:38:52.128Z,25.13
2018-01-11T11:41:21.019Z,26.77
2018-01-11T11:43:49.272Z,24.50
2018-01-11T11:46:18.317Z,26.50
2018-01-11T11:48:47.912Z,23.50
2018-01-11T11:51:16.463Z,24.50
2018-01-11T11:53:44.741Z,25.17
2018-01-11T11:56:14.370Z,25.30
2018-01-11T11:58:42.897Z,22.67
2018-01-11T12:01:11.182Z,22.80
2018-01-11T12:03:39.412Z,22.67
2018-01-11T12:06:07.653Z,21.43
2018-01-11T12:08:37.322Z,20.40
2018-01-11T12:11:05.561Z,23.43
2018-01-11T12:13:34.568Z,21.40
2018-01-11T12:16:03.246Z,21.17
2018-01-11T12:18:32.269Z,20.53
2018-01-11T12:21:00.531Z,22.33
2018-01-11T12:23:31.730Z,22.13
2018-01-11T12:25:59.981Z,21.67
2018-01-11T12:28:28.233Z,20.33
2018-01-11T12:30:56.513Z,20.33
2018-01-11T12:33:24.754Z,22.60
2018-01-11T12:35:52.997Z,21.50
2018-01-11T12:38:22.408Z,23.33
2018-01-11T12:40:50.658Z,22.33
2018-01-11T12:43:18.910Z,22.87
2018-01-11T12:45:47.197Z,22.40
2018-01-11T12:48:15.460Z,22.83
2018-01-11T12:50:43.746Z,26.10
2018-01-11T12:53:12.038Z,22.80
2018-01-11T12:55:41.830Z,23.17
2018-01-11T12:58:10.077Z,24.07
2018-01-11T13:00:38.378Z,22.53
2018-01-11T13:03:07.753Z,22.50
2018-01-11T13:05:36.761Z,26.13
2018-01-11T13:08:06.201Z,24.50
2018-01-11T13:10:34.440Z,23.57
2018-01-11T13:13:02.685Z,22.80
2018-01-11T13:15:32.468Z,22.90
2018-01-11T13:18:00.714Z,22.13
2018-01-11T13:20:28.952Z,22.37
2018-01-11T13:22:57.234Z,22.03
2018-01-11T13:25:25.477Z,23.97
2018-01-11T13:27:54.854Z,24.67
2018-01-11T13:30:23.524Z,24.27
2018-01-11T13:32:52.161Z,24.63
2018-01-11T13:35:21.751Z,25.00
2018-01-11T13:37:49.896Z,23.30
2018-01-11T13:40:18.133Z,21.90
2018-01-11T13:42:46.394Z,23.20
2018-01-11T13:45:14.679Z,25.17
2018-01-11T13:47:43.717Z,23.47
2018-01-11T13:50:12.037Z,22.63
2018-01-11T13:52:41.883Z,24.67
2018-01-11T13:55:10.121Z,24.70
2018-01-11T13:57:38.432Z,23.17
2018-01-11T14:00:07.496Z,23.10
2018-01-11T14:02:36.873Z,24.47
2018-01-11T14:05:05.118Z,23.03
2018-01-11T14:07:33.398Z,24.10
2018-01-11T14:10:02.786Z,24.37
2018-01-11T14:12:31.030Z,24.67
2018-01-11T14:15:00.888Z,24.37
2018-01-11T14:17:29.528Z,22.40
2018-01-11T14:19:57.767Z,23.50
2018-01-11T14:22:26.053Z,23.80
2018-01-11T14:24:54.313Z,24.50
2018-01-11T14:27:22.544Z,23.30
2018-01-11T14:29:50.849Z,24.20
2018-01-11T14:32:20.449Z,23.73
2018-01-11T14:34:50.129Z,23.37
2018-01-11T14:37:18.463Z,23.10
2018-01-11T14:39:48.248Z,21.67
2018-01-11T14:42:16.508Z,23.57
2018-01-11T14:44:46.325Z,22.30
2018-01-11T14:47:15.950Z,23.90
2018-01-11T14:49:44.494Z,22.20
2018-01-11T14:52:12.810Z,23.73
2018-01-11T14:54:41.882Z,26.60
2018-01-11T14:57:10.230Z,23.60
2018-01-11T14:59:38.973Z,24.90
2018-01-11T15:02:07.600Z,25.63
2018-01-11T15:04:37.188Z,25.07
2018-01-11T15:07:06.111Z,26.27
2018-01-11T15:09:34.349Z,27.63
2018-01-11T15:12:02.590Z,27.50
2018-01-11T15:14:32.064Z,27.37
2018-01-11T15:17:01.818Z,25.47
2018-01-11T15:19:30.061Z,26.23
2018-01-11T15:21:58.338Z,26.57
2018-01-11T15:24:26.588Z,25.33
2018-01-11T15:26:54.824Z,25.90
2018-01-11T15:29:23.362Z,28.27
2018-01-11T15:31:52.529Z,25.40
2018-01-11T15:34:22.142Z,27.63
2018-01-11T15:36:51.834Z,26.57
2018-01-11T15:39:21.219Z,26.43
2018-01-11T15:41:49.479Z,27.00
2018-01-11T15:44:18.183Z,29.70
2018-01-11T15:46:47.956Z,28.10
2018-01-11T15:49:16.242Z,30.00
2018-01-11T15:51:44.550Z,27.67
2018-01-11T15:54:13.589Z,28.00
2018-01-11T15:56:42.546Z,28.10
2018-01-11T15:59:11.605Z,31.23
2018-01-11T16:01:39.836Z,31.10
2018-01-11T16:04:08.073Z,30.57
2018-01-11T16:06:37.976Z,27.60
2018-01-11T16:09:06.097Z,32.97
2018-01-11T16:11:34.339Z,32.53
2018-01-11T16:14:03.001Z,29.37
2018-01-11T16:16:32.732Z,30.27
2018-01-11T16:19:00.997Z,28.70
2018-01-11T16:21:29.299Z,29.87
2018-01-11T16:23:57.543Z,27.20
2018-01-11T16:26:27.124Z,29.53
2018-01-11T16:28:55.674Z,26.33
2018-01-11T16:31:23.900Z,27.90
2018-01-11T16:33:52.141Z,28.40
2018-01-11T16:36:20.418Z,28.30
2018-01-11T16:38:49.425Z,29.17
2018-01-11T16:41:17.680Z,30.23
2018-01-11T16:43:47.296Z,29.20
2018-01-11T16:46:15.830Z,31.20
2018-01-11T16:48:45.584Z,28.73
2018-01-11T16:51:14.272Z,27.70
2018-01-11T16:53:44.021Z,31.57
2018-01-11T16:56:12.277Z,30.10
2018-01-11T16:58:40.544Z,30.87
2018-01-11T17:01:08.787Z,31.00
2018-01-11T17:03:37.022Z,29.37
2018-01-11T17:06:06.058Z,30.13
2018-01-11T17:08:35.424Z,33.13
2018-01-11T17:11:03.675Z,32.23
2018-01-11T17:13:31.990Z,33.50
2018-01-11T17:16:01.019Z,31.67
2018-01-11T17:18:29.325Z,33.13
2018-01-11T17:20:57.601Z,35.57
2018-01-11T17:23:26.605Z,35.87
2018-01-11T17:25:54.850Z,34.77
2018-01-11T17:28:23.901Z,38.25
2018-01-11T17:30:52.179Z,33.70
2018-01-11T17:33:20.434Z,32.77
2018-01-11T17:35:49.857Z,33.53
2018-01-11T17:38:18.568Z,32.03
2018-01-11T17:40:46.793Z,33.07
2018-01-11T17:43:15.091Z,34.50
2018-01-11T17:45:44.136Z,33.50
2018-01-11T17:48:13.887Z,35.73
2018-01-11T17:50:42.206Z,34.10
2018-01-11T17:53:11.167Z,34.57
2018-01-11T17:55:42.594Z,33.73
2018-01-11T17:58:10.896Z,35.33
2018-01-11T18:00:41.445Z,34.17
2018-01-11T18:03:12.809Z,36.73
2018-01-11T18:05:41.817Z,34.17
2018-01-11T18:08:10.060Z,35.20
2018-01-11T18:10:38.342Z,32.97
2018-01-11T18:13:06.594Z,35.53
2018-01-11T18:15:35.621Z,34.20
2018-01-11T18:18:05.251Z,36.70
2018-01-11T18:20:34.137Z,34.03
2018-01-11T18:23:02.630Z,34.20
2018-01-11T18:25:31.076Z,38.40
2018-01-11T18:28:01.433Z,35.30
2018-01-11T18:30:31.406Z,33.60
2018-01-11T18:32:59.543Z,33.30
2018-01-11T18:35:29.110Z,37.73
2018-01-11T18:38:02.223Z,31.67
2018-01-11T18:40:46.302Z,33.70
2018-01-11T18:43:14.648Z,35.30
2018-01-11T18:45:44.315Z,35.60
2018-01-11T18:48:12.900Z,35.27
2018-01-11T18:50:42.913Z,32.40
2018-01-11T18:53:12.694Z,31.30
2018-01-11T18:55:42.354Z,31.50
2018-01-11T19:01:22.071Z,33.57
2018-01-11T19:03:50.466Z,33.33
2018-01-11T19:06:18.780Z,33.87
2018-01-11T19:08:47.122Z,34.67
2018-01-11T19:11:16.126Z,33.50
2018-01-11T19:13:45.149Z,32.57
2018-01-11T19:16:13.449Z,34.43
2018-01-11T19:18:43.160Z,32.73
2018-01-11T19:21:11.315Z,36.77
2018-01-11T19:23:40.958Z,37.97
2018-01-11T19:26:10.003Z,37.50
2018-01-11T19:28:42.227Z,35.07
2018-01-11T19:31:12.161Z,39.37
2018-01-11T19:33:41.297Z,41.20
2018-01-11T19:36:10.302Z,37.83
2018-01-11T19:38:42.240Z,41.20
2018-01-11T19:41:10.525Z,39.43
2018-01-11T19:43:38.799Z,37.17
2018-01-11T19:46:07.068Z,41.00
2018-01-11T19:48:35.345Z,38.57
2018-01-11T19:51:04.234Z,40.87
2018-01-11T19:53:32.831Z,43.73
2018-01-11T19:56:01.223Z,44.93
2018-01-11T19:58:29.474Z,42.53
2018-01-11T20:00:58.538Z,44.60
2018-01-11T20:03:28.575Z,45.90
2018-01-11T20:05:58.180Z,43.57
2018-01-11T20:08:27.087Z,43.00
2018-01-11T20:10:55.409Z,39.53
2018-01-11T20:13:23.696Z,40.40
2018-01-11T20:15:52.981Z,42.20
2018-01-11T20:18:21.340Z,38.77
2018-01-11T20:20:49.635Z,37.83
2018-01-11T20:23:19.376Z,37.07
2018-01-11T20:25:47.967Z,38.50
2018-01-11T20:28:16.232Z,37.13
2018-01-11T20:30:44.514Z,39.07
2018-01-11T20:33:12.814Z,36.00
2018-01-11T20:35:41.400Z,39.50
2018-01-11T20:38:11.238Z,39.90
2018-01-11T20:40:39.727Z,39.90
2018-01-11T20:43:11.226Z,40.10
2018-01-11T20:45:41.301Z,43.00
2018-01-11T20:48:10.763Z,41.80
2018-01-11T20:50:39.257Z,46.87
2018-01-11T20:53:09.094Z,44.50
2018-01-11T20:55:37.641Z,46.57
2018-01-11T20:58:07.537Z,42.10
2018-01-11T21:00:38.338Z,47.80
2018-01-11T21:03:07.725Z,44.93
2018-01-11T21:05:36.092Z,41.70
2018-01-11T21:08:04.474Z,40.67
2018-01-11T21:10:32.853Z,41.60
2018-01-11T21:13:02.484Z,43.13
2018-01-11T21:15:31.664Z,42.80
2018-01-11T21:17:59.951Z,47.57
2018-01-11T21:20:29.006Z,45.00
2018-01-11T21:22:57.424Z,44.07
2018-01-11T21:25:26.762Z,41.27
2018-01-11T21:27:56.554Z,42.17
2018-01-11T21:30:26.837Z,45.40
2018-01-11T21:32:55.898Z,43.07
2018-01-11T21:35:24.956Z,42.77
2018-01-11T21:37:53.226Z,44.30
2018-01-11T21:40:21.489Z,45.23
2018-01-11T21:42:49.754Z,42.30
2018-01-11T21:45:18.061Z,43.87
2018-01-11T21:47:47.461Z,45.10
2018-01-11T21:50:15.734Z,46.17
2018-01-11T21:52:44.473Z,44.43
2018-01-11T21:55:13.522Z,43.30
2018-01-11T21:57:42.530Z,46.00
2018-01-11T22:00:10.893Z,47.87
2018-01-11T22:02:39.549Z,44.67
2018-01-11T22:05:07.823Z,44.20
2018-01-11T22:07:36.134Z,45.30
2018-01-11T22:10:05.732Z,43.93
2018-01-11T22:12:34.668Z,45.40
2018-01-11T22:15:03.500Z,48.27
2018-01-11T22:17:33.096Z,44.87
2018-01-11T22:20:01.246Z,45.90
2018-01-11T22:22:30.905Z,48.60
2018-01-11T22:24:59.337Z,44.47
2018-01-11T22:27:27.577Z,43.70
2018-01-11T22:29:55.898Z,44.73
2018-01-11T22:32:25.298Z,44.50
2018-01-11T22:34:54.921Z,44.40
2018-01-11T22:37:23.556Z,44.60
2018-01-11T22:39:52.226Z,45.50
2018-01-11T22:42:20.698Z,43.17
2018-01-11T22:44:50.340Z,47.00
2018-01-11T22:47:19.825Z,47.67
2018-01-11T22:49:49.347Z,45.60
2018-01-11T22:52:18.274Z,47.07
2018-01-11T22:54:47.037Z,47.53
2018-01-11T22:57:16.451Z,46.07
2018-01-11T22:59:45.497Z,47.27
2018-01-11T23:02:15.254Z,46.97
2018-01-11T23:04:44.645Z,45.70
2018-01-11T23:07:12.929Z,47.83
2018-01-11T23:09:41.205Z,48.60
2018-01-11T23:12:09.448Z,46.83
2018-01-11T23:14:37.739Z,47.97
2018-01-11T23:17:05.989Z,49.20
2018-01-11T23:19:35.013Z,46.60
2018-01-11T23:22:03.681Z,49.80
2018-01-11T23:24:32.324Z,47.20
2018-01-11T23:27:00.574Z,46.67
2018-01-11T23:29:28.866Z,44.30
2018-01-11T23:31:57.104Z,45.47
2018-01-11T23:34:26.114Z,46.90
2018-01-11T23:36:56.376Z,44.23
2018-01-11T23:39:24.505Z,45.57
2018-01-11T23:41:53.794Z,45.40
2018-01-11T23:44:22.562Z,45.17
2018-01-11T23:46:50.812Z,43.77
2018-01-11T23:49:20.882Z,43.43
2018-01-11T23:51:49.180Z,45.30
2018-01-11T23:54:17.477Z,50.30
2018-01-11T23:56:45.740Z,48.40
2018-01-11T23:59:15.397Z,48.07
